createdAt,value
2023-05-19T00:01:21.760Z,96.23
2023-05-19T00:04:25.100Z,96.28
2023-05-19T00:07:32.808Z,96.24
2023-05-19T00:10:36.689Z,96.23
2023-05-19T00:13:39.850Z,96.26
2023-05-19T00:16:43.406Z,96.35
2023-05-19T00:19:46.809Z,96.42
2023-05-19T00:22:51.213Z,96.47
2023-05-19T00:25:54.270Z,96.52
2023-05-19T00:28:57.458Z,96.53
2023-05-19T00:32:00.553Z,96.53
2023-05-19T00:35:03.662Z,96.59
2023-05-19T00:38:06.949Z,96.62
2023-05-19T00:41:10.148Z,96.72
2023-05-19T00:44:13.257Z,96.78
2023-05-19T00:47:16.934Z,96.67
2023-05-19T00:50:20.030Z,96.58
2023-05-19T00:53:24.724Z,96.61
2023-05-19T00:56:27.879Z,96.79
2023-05-19T00:59:30.999Z,96.86
2023-05-19T01:02:34.990Z,96.83
2023-05-19T01:05:40.303Z,96.80
2023-05-19T01:08:43.602Z,96.80
2023-05-19T01:11:46.595Z,96.74
2023-05-19T01:14:50.364Z,96.74
2023-05-19T01:18:11.432Z,96.75
2023-05-19T01:21:36.981Z,96.78
2023-05-19T01:24:58.793Z,96.81
2023-05-19T01:28:34.519Z,96.79
2023-05-19T01:31:40.176Z,96.75
2023-05-19T01:34:47.264Z,96.73
2023-05-19T01:37:55.203Z,96.72
2023-05-19T01:41:04.454Z,96.66
2023-05-19T01:44:10.076Z,96.63
2023-05-19T01:47:19.288Z,96.59
2023-05-19T01:50:23.873Z,96.44
2023-05-19T01:53:27.159Z,96.32
2023-05-19T01:56:50.349Z,96.37
2023-05-19T02:00:06.618Z,96.43
2023-05-19T02:03:31.009Z,96.50
2023-05-19T02:06:50.131Z,96.57
2023-05-19T02:10:06.515Z,96.57
2023-05-19T02:13:21.669Z,96.58
2023-05-19T02:16:30.411Z,96.59
2023-05-19T02:19:42.604Z,96.45
2023-05-19T02:22:46.071Z,96.34
2023-05-19T02:25:57.050Z,96.35
2023-05-19T02:29:02.692Z,96.45
2023-05-19T02:32:08.819Z,96.46
2023-05-19T02:35:13.539Z,96.44
2023-05-19T02:38:26.575Z,96.43
2023-05-19T02:41:30.852Z,96.42
2023-05-19T02:44:34.244Z,96.42
2023-05-19T02:47:39.102Z,96.40
2023-05-19T02:50:46.929Z,96.40
2023-05-19T02:53:50.559Z,96.37
2023-05-19T02:56:54.182Z,96.28
2023-05-19T02:59:58.368Z,96.15
2023-05-19T03:03:03.488Z,96.16
2023-05-19T03:06:08.870Z,96.17
2023-05-19T03:09:13.027Z,96.22
2023-05-19T03:12:18.616Z,96.29
2023-05-19T03:15:23.691Z,96.33
2023-05-19T03:18:29.378Z,96.35
2023-05-19T03:21:34.682Z,96.41
2023-05-19T03:24:37.964Z,96.47
2023-05-19T03:27:43.648Z,96.48
2023-05-19T03:30:52.293Z,96.48
2023-05-19T03:33:57.926Z,96.46
2023-05-19T03:37:01.689Z,96.48
2023-05-19T03:40:07.069Z,96.49
2023-05-19T03:43:10.929Z,96.44
2023-05-19T03:46:14.961Z,96.40
2023-05-19T03:49:19.519Z,96.34
2023-05-19T03:52:26.175Z,96.27
2023-05-19T03:55:31.415Z,96.22
2023-05-19T03:58:37.137Z,96.12
2023-05-19T04:01:42.083Z,96.02
2023-05-19T04:04:46.392Z,95.89
2023-05-19T04:07:49.999Z,95.82
2023-05-19T04:10:54.265Z,95.71
2023-05-19T04:13:57.426Z,95.59
2023-05-19T04:17:00.910Z,95.51
2023-05-19T04:20:06.476Z,95.44
2023-05-19T04:23:12.607Z,95.28
2023-05-19T04:26:18.093Z,95.06
2023-05-19T04:29:24.332Z,94.92
2023-05-19T04:32:30.473Z,94.83
2023-05-19T04:36:06.203Z,94.60
2023-05-19T04:39:30.509Z,94.57
2023-05-19T04:42:47.652Z,94.27
2023-05-19T04:45:51.932Z,94.08
2023-05-19T04:48:57.815Z,93.78
2023-05-19T04:52:01.502Z,93.42
2023-05-19T04:55:05.625Z,93.59
2023-05-19T04:58:09.496Z,93.68
2023-05-19T05:01:33.281Z,93.37
2023-05-19T05:04:36.923Z,92.86
2023-05-19T05:07:41.661Z,92.21
2023-05-19T05:10:54.165Z,91.95
2023-05-19T05:13:59.902Z,91.00
2023-05-19T05:17:03.491Z,90.59
2023-05-19T05:20:08.858Z,91.09
2023-05-19T05:23:14.840Z,89.60
2023-05-19T05:26:25.206Z,88.03
2023-05-19T05:29:28.270Z,87.12
2023-05-19T05:32:32.353Z,87.14
2023-05-19T05:35:35.393Z,87.10
2023-05-19T05:38:39.418Z,86.53
2023-05-19T05:41:43.058Z,85.28
2023-05-19T05:44:46.670Z,84.91
2023-05-19T05:47:51.035Z,84.24
2023-05-19T05:50:56.917Z,84.72
2023-05-19T05:54:01.169Z,85.64
2023-05-19T05:57:04.684Z,81.35
2023-05-19T06:00:16.134Z,79.86
2023-05-19T06:03:24.600Z,80.98
2023-05-19T06:06:28.545Z,80.07
2023-05-19T06:09:33.024Z,80.98
2023-05-19T06:12:41.166Z,79.41
2023-05-19T06:15:44.913Z,78.75
2023-05-19T06:18:48.260Z,77.15
2023-05-19T06:21:52.447Z,77.13
2023-05-19T06:24:58.070Z,77.91
2023-05-19T06:28:01.311Z,77.59
2023-05-19T06:31:04.626Z,76.79
2023-05-19T06:34:10.843Z,76.99
2023-05-19T06:37:19.748Z,77.08
2023-05-19T06:40:23.332Z,76.07
2023-05-19T06:43:27.187Z,76.73
2023-05-19T06:46:30.424Z,76.00
2023-05-19T06:49:33.742Z,76.23
2023-05-19T06:52:39.305Z,76.34
2023-05-19T06:55:58.217Z,76.84
2023-05-19T06:59:03.230Z,77.00
2023-05-19T07:02:07.280Z,78.15
2023-05-19T07:05:15.601Z,77.42
2023-05-19T07:08:37.479Z,76.80
2023-05-19T07:11:41.725Z,76.39
2023-05-19T07:14:45.802Z,75.90
2023-05-19T07:17:51.722Z,75.88
2023-05-19T07:20:55.920Z,76.28
2023-05-19T07:23:59.445Z,75.93
2023-05-19T07:27:04.417Z,75.55
2023-05-19T07:30:09.043Z,76.26
2023-05-19T07:33:12.494Z,76.73
2023-05-19T07:36:16.010Z,75.96
2023-05-19T07:39:19.555Z,74.63
2023-05-19T07:42:32.103Z,74.48
2023-05-19T07:45:36.436Z,74.43
2023-05-19T07:48:39.534Z,74.70
2023-05-19T07:51:43.131Z,74.36
2023-05-19T07:54:48.606Z,73.96
2023-05-19T07:57:53.160Z,72.86
2023-05-19T08:01:00.835Z,72.63
2023-05-19T08:04:04.008Z,72.15
2023-05-19T08:07:07.458Z,71.77
2023-05-19T08:10:11.133Z,71.41
2023-05-19T08:13:15.016Z,71.93
2023-05-19T08:16:18.380Z,72.71
2023-05-19T08:19:22.269Z,70.86
2023-05-19T08:22:26.143Z,70.84
2023-05-19T08:25:29.608Z,71.15
2023-05-19T08:28:32.803Z,71.74
2023-05-19T08:31:36.639Z,73.11
2023-05-19T08:34:39.886Z,71.43
2023-05-19T08:37:43.850Z,72.67
2023-05-19T08:40:48.771Z,73.31
2023-05-19T08:43:52.006Z,73.65
2023-05-19T08:46:58.299Z,71.09
2023-05-19T08:50:08.669Z,70.53
2023-05-19T08:56:36.376Z,70.07
2023-05-19T08:59:41.598Z,69.16
2023-05-19T09:02:59.690Z,69.15
2023-05-19T09:06:14.082Z,70.53
2023-05-19T09:09:17.582Z,71.68
2023-05-19T09:12:21.274Z,70.26
2023-05-19T09:15:28.749Z,70.49
2023-05-19T09:18:32.350Z,69.70
2023-05-19T09:21:36.448Z,69.45
2023-05-19T09:24:40.915Z,68.77
2023-05-19T09:27:44.330Z,67.66
2023-05-19T09:30:47.402Z,68.46
2023-05-19T09:33:54.358Z,68.39
2023-05-19T09:37:00.069Z,68.90
2023-05-19T09:40:05.984Z,68.26
2023-05-19T09:43:11.024Z,68.02
2023-05-19T09:46:16.057Z,68.73
2023-05-19T09:49:24.195Z,68.29
2023-05-19T09:52:28.495Z,67.19
2023-05-19T09:55:34.025Z,67.68
2023-05-19T09:58:38.257Z,67.68
2023-05-19T10:01:46.571Z,68.04
2023-05-19T10:04:51.331Z,67.24
2023-05-19T10:07:55.972Z,65.76
2023-05-19T10:11:00.276Z,65.04
2023-05-19T10:14:04.771Z,64.59
2023-05-19T10:17:10.087Z,65.00
2023-05-19T10:20:16.159Z,63.52
2023-05-19T10:23:19.850Z,64.10
2023-05-19T10:26:25.327Z,64.01
2023-05-19T10:29:34.967Z,63.32
2023-05-19T10:32:40.618Z,63.15
2023-05-19T10:36:14.470Z,64.41
2023-05-19T10:39:27.960Z,63.73
2023-05-19T10:42:42.162Z,63.89
2023-05-19T10:45:49.735Z,64.53
2023-05-19T10:48:52.869Z,64.65
2023-05-19T10:51:58.324Z,64.95
2023-05-19T10:55:01.364Z,63.57
2023-05-19T10:58:04.732Z,63.12
2023-05-19T11:01:18.715Z,62.49
2023-05-19T11:04:41.309Z,63.51
2023-05-19T11:08:04.749Z,62.86
2023-05-19T11:11:17.693Z,62.09
2023-05-19T11:14:24.221Z,61.58
2023-05-19T11:17:27.567Z,62.27
2023-05-19T11:20:35.263Z,61.33
2023-05-19T11:23:40.780Z,62.26
2023-05-19T11:26:43.950Z,61.45
2023-05-19T11:29:48.620Z,61.01
2023-05-19T11:32:52.585Z,60.93
2023-05-19T11:36:00.430Z,60.54
2023-05-19T11:39:06.214Z,60.30
2023-05-19T11:42:11.013Z,60.14
2023-05-19T11:45:14.873Z,59.78
2023-05-19T11:48:21.817Z,58.35
2023-05-19T11:51:25.168Z,58.08
2023-05-19T11:54:33.827Z,57.93
2023-05-19T11:57:38.437Z,58.32
2023-05-19T12:00:43.215Z,57.29
2023-05-19T12:03:46.747Z,56.56
2023-05-19T12:06:50.146Z,56.09
2023-05-19T12:09:55.571Z,56.93
2023-05-19T12:12:59.969Z,56.94
2023-05-19T12:16:05.458Z,57.29
2023-05-19T12:19:08.824Z,57.40
2023-05-19T12:22:12.955Z,57.25
2023-05-19T12:25:17.108Z,57.57
2023-05-19T12:28:20.286Z,57.44
2023-05-19T12:31:24.142Z,58.09
2023-05-19T12:34:27.183Z,57.24
2023-05-19T12:37:30.382Z,57.47
2023-05-19T12:40:35.311Z,58.07
2023-05-19T12:43:39.807Z,56.84
2023-05-19T12:46:44.750Z,58.01
2023-05-19T12:50:00.360Z,57.79
2023-05-19T12:53:03.619Z,56.59
2023-05-19T12:56:14.726Z,57.48
2023-05-19T12:59:37.204Z,58.08
2023-05-19T13:03:00.741Z,58.62
2023-05-19T13:06:04.070Z,58.90
2023-05-19T13:09:07.413Z,59.08
2023-05-19T13:12:10.323Z,59.58
2023-05-19T13:15:13.259Z,60.22
2023-05-19T13:18:16.343Z,60.05
2023-05-19T13:21:19.571Z,60.44
2023-05-19T13:24:22.668Z,60.29
2023-05-19T13:27:25.596Z,60.00
2023-05-19T13:30:28.661Z,59.90
2023-05-19T13:33:32.292Z,60.08
2023-05-19T13:36:36.857Z,60.25
2023-05-19T13:39:40.637Z,61.36
2023-05-19T13:42:43.892Z,61.29
2023-05-19T13:45:46.974Z,61.55
2023-05-19T13:48:49.854Z,61.98
2023-05-19T13:51:57.318Z,62.07
2023-05-19T13:55:00.227Z,61.52
2023-05-19T13:58:03.782Z,62.29
2023-05-19T14:01:06.682Z,62.19
2023-05-19T14:04:10.711Z,61.43
2023-05-19T14:07:13.903Z,61.46
2023-05-19T14:10:16.818Z,61.92
2023-05-19T14:13:32.647Z,63.00
2023-05-19T14:16:38.359Z,62.07
2023-05-19T14:19:41.378Z,62.51
2023-05-19T14:22:44.316Z,62.39
2023-05-19T14:25:47.232Z,63.26
2023-05-19T14:28:50.131Z,63.06
2023-05-19T14:31:53.249Z,63.62
2023-05-19T14:34:56.376Z,63.38
2023-05-19T14:37:59.287Z,63.65
2023-05-19T14:41:02.936Z,64.77
2023-05-19T14:44:06.122Z,65.62
2023-05-19T14:47:11.407Z,64.34
2023-05-19T14:50:14.571Z,65.19
2023-05-19T14:53:17.587Z,66.25
2023-05-19T14:56:22.154Z,66.50
2023-05-19T14:59:25.190Z,66.37
2023-05-19T15:02:29.689Z,66.42
2023-05-19T15:05:32.877Z,66.60
2023-05-19T15:08:37.868Z,67.11
2023-05-19T15:11:40.981Z,67.06
2023-05-19T15:14:43.854Z,66.71
2023-05-19T15:17:48.031Z,67.32
2023-05-19T15:20:50.938Z,68.42
2023-05-19T15:23:53.945Z,68.66
2023-05-19T15:26:56.838Z,69.24
2023-05-19T15:29:59.744Z,69.76
2023-05-19T15:33:02.678Z,69.56
2023-05-19T15:36:06.007Z,70.02
2023-05-19T15:39:09.884Z,70.34
2023-05-19T15:42:12.808Z,70.69
2023-05-19T15:45:15.739Z,70.31
2023-05-19T15:48:18.664Z,70.58
2023-05-19T15:51:21.930Z,70.88
2023-05-19T15:54:25.650Z,70.02
2023-05-19T15:57:28.958Z,70.30
2023-05-19T16:00:32.043Z,70.42
2023-05-19T16:03:35.229Z,71.43
2023-05-19T16:06:38.295Z,71.68
2023-05-19T16:09:41.134Z,71.79
2023-05-19T16:12:44.072Z,71.95
2023-05-19T16:15:47.273Z,72.11
2023-05-19T16:18:50.646Z,72.07
2023-05-19T16:21:53.668Z,72.96
2023-05-19T16:24:56.556Z,72.92
2023-05-19T16:27:59.576Z,73.66
2023-05-19T16:31:02.887Z,73.37
2023-05-19T16:34:05.757Z,73.95
2023-05-19T16:37:08.767Z,74.99
2023-05-19T16:40:12.102Z,75.62
2023-05-19T16:43:14.983Z,76.41
2023-05-19T16:46:17.879Z,76.92
2023-05-19T16:49:20.964Z,77.22
2023-05-19T16:52:24.034Z,77.87
2023-05-19T16:55:27.123Z,77.80
2023-05-19T16:58:31.021Z,78.27
2023-05-19T17:01:34.158Z,78.60
2023-05-19T17:04:37.046Z,78.53
2023-05-19T17:07:39.908Z,78.86
2023-05-19T17:10:42.762Z,79.29
2023-05-19T17:13:46.457Z,79.66
2023-05-19T17:16:49.575Z,80.37
2023-05-19T17:19:52.602Z,80.67
2023-05-19T17:22:55.483Z,80.91
2023-05-19T17:26:02.083Z,81.45
2023-05-19T17:29:06.032Z,82.15
2023-05-19T17:32:09.084Z,82.49
2023-05-19T17:35:12.088Z,83.17
2023-05-19T17:38:15.129Z,83.52
2023-05-19T17:41:18.048Z,83.87
2023-05-19T17:44:23.202Z,84.14
2023-05-19T17:47:26.362Z,84.47
2023-05-19T17:50:29.241Z,84.76
2023-05-19T17:53:32.385Z,84.90
2023-05-19T17:56:41.593Z,84.95
2023-05-19T17:59:45.080Z,85.36
2023-05-19T18:02:48.441Z,85.17
2023-05-19T18:05:51.903Z,85.99
2023-05-19T18:08:58.146Z,86.15
2023-05-19T18:12:02.473Z,86.32
2023-05-19T18:15:06.130Z,86.54
2023-05-19T18:18:10.723Z,87.00
2023-05-19T18:21:17.855Z,87.17
2023-05-19T18:24:29.076Z,87.34
2023-05-19T18:27:33.568Z,87.54
2023-05-19T18:30:36.729Z,87.35
2023-05-19T18:33:39.796Z,87.53
2023-05-19T18:36:42.746Z,87.67
2023-05-19T18:39:45.751Z,87.39
2023-05-19T18:42:48.625Z,87.93
2023-05-19T18:45:51.595Z,87.86
2023-05-19T18:48:54.789Z,87.67
2023-05-19T18:51:57.786Z,87.73
2023-05-19T18:55:01.304Z,87.94
2023-05-19T18:58:04.798Z,88.62
2023-05-19T19:01:07.730Z,88.71
2023-05-19T19:04:10.685Z,87.78
2023-05-19T19:07:13.633Z,88.18
2023-05-19T19:10:16.693Z,87.43
2023-05-19T19:13:19.740Z,87.76
2023-05-19T19:16:22.829Z,88.84
2023-05-19T19:19:30.034Z,88.92
2023-05-19T19:22:33.264Z,89.17
2023-05-19T19:25:36.174Z,88.40
2023-05-19T19:28:39.194Z,88.95
2023-05-19T19:31:42.439Z,89.44
2023-05-19T19:34:45.544Z,89.82
2023-05-19T19:37:48.737Z,89.83
2023-05-19T19:40:52.766Z,89.52
2023-05-19T19:43:56.154Z,89.68
2023-05-19T19:46:59.693Z,90.01
2023-05-19T19:50:05.750Z,90.04
2023-05-19T19:53:09.056Z,90.10
2023-05-19T19:56:11.995Z,90.21
2023-05-19T19:59:16.041Z,90.29
2023-05-19T20:02:19.083Z,90.58
2023-05-19T20:05:22.331Z,90.46
2023-05-19T20:08:26.018Z,90.58
2023-05-19T20:11:29.130Z,90.89
2023-05-19T20:14:32.286Z,90.91
2023-05-19T20:17:37.231Z,90.99
2023-05-19T20:20:41.269Z,90.95
2023-05-19T20:23:44.384Z,91.11
2023-05-19T20:26:47.569Z,91.18
2023-05-19T20:29:50.641Z,91.30
2023-05-19T20:32:53.618Z,91.04
2023-05-19T20:35:56.560Z,90.95
2023-05-19T20:38:59.860Z,90.65
2023-05-19T20:42:02.754Z,90.66
2023-05-19T20:45:06.434Z,90.78
2023-05-19T20:48:11.247Z,90.77
2023-05-19T20:51:14.422Z,91.03
2023-05-19T20:54:19.863Z,91.10
2023-05-19T20:57:22.827Z,91.13
2023-05-19T21:00:25.859Z,91.49
2023-05-19T21:03:30.611Z,91.54
2023-05-19T21:06:33.970Z,91.55
2023-05-19T21:09:36.911Z,91.68
2023-05-19T21:12:39.879Z,91.64
2023-05-19T21:15:42.768Z,91.64
2023-05-19T21:18:45.706Z,91.64
2023-05-19T21:21:49.596Z,91.55
2023-05-19T21:24:53.202Z,91.69
2023-05-19T21:27:56.207Z,91.69
2023-05-19T21:30:59.253Z,91.66
2023-05-19T21:34:02.962Z,91.68
2023-05-19T21:37:05.861Z,91.64
2023-05-19T21:40:09.845Z,91.65
2023-05-19T21:43:13.000Z,91.78
2023-05-19T21:46:15.876Z,91.80
2023-05-19T21:49:18.854Z,91.85
2023-05-19T21:52:22.059Z,91.96
2023-05-19T21:55:24.961Z,91.93
2023-05-19T21:58:27.859Z,91.85
2023-05-19T22:01:30.869Z,91.83
2023-05-19T22:04:33.794Z,92.01
2023-05-19T22:07:36.797Z,91.99
2023-05-19T22:10:39.668Z,91.97
2023-05-19T22:13:42.628Z,91.93
2023-05-19T22:16:47.598Z,92.02
2023-05-19T22:19:50.690Z,92.09
2023-05-19T22:22:53.656Z,92.06
2023-05-19T22:25:56.504Z,92.07
2023-05-19T22:28:59.372Z,92.14
2023-05-19T22:32:02.363Z,92.26
2023-05-19T22:35:06.688Z,92.26
2023-05-19T22:38:10.671Z,92.24
2023-05-19T22:41:13.807Z,92.33
2023-05-19T22:44:18.202Z,92.42
2023-05-19T22:47:21.795Z,92.44
2023-05-19T22:50:24.854Z,92.44
2023-05-19T22:53:27.702Z,92.27
2023-05-19T22:56:30.550Z,92.31
2023-05-19T22:59:33.766Z,92.34
2023-05-19T23:02:36.816Z,92.33
2023-05-19T23:05:40.228Z,92.39
2023-05-19T23:08:46.736Z,91.86
2023-05-19T23:11:50.236Z,91.93
2023-05-19T23:14:53.133Z,91.59
2023-05-19T23:17:56.076Z,91.28
2023-05-19T23:20:59.041Z,91.39
2023-05-19T23:24:02.097Z,91.34
2023-05-19T23:27:05.712Z,91.47
2023-05-19T23:30:09.123Z,91.72
2023-05-19T23:33:12.060Z,91.86
2023-05-19T23:36:16.706Z,91.96
2023-05-19T23:39:19.711Z,91.64
2023-05-19T23:42:22.613Z,91.48
2023-05-19T23:45:25.611Z,91.96
2023-05-19T23:48:29.489Z,92.11
2023-05-19T23:51:32.349Z,91.61
2023-05-19T23:54:35.411Z,91.60
2023-05-19T23:57:38.375Z,91.78
